sensor_id;sensor_type;location;lat;lon;timestamp;P1;durP1;ratioP1;P2;durP2;ratioP2
2434;SDS011;1228;51.022;6.764;2024-02-16T00:00:25;4.57;;;4.17;;
2434;SDS011;1228;51.022;6.764;2024-02-16T00:02:51;3.87;;;3.57;;
2434;SDS011;1228;51.022;6.764;2024-02-16T00:05:17;5.57;;;3.63;;
2434;SDS011;1228;51.022;6.764;2024-02-16T00:07:43;4.83;;;3.77;;
2434;SDS011;1228;51.022;6.764;2024-02-16T00:10:09;4.70;;;4.03;;
2434;SDS011;1228;51.022;6.764;2024-02-16T00:12:36;4.80;;;4.00;;
2434;SDS011;1228;51.022;6.764;2024-02-16T00:15:02;4.20;;;3.90;;
2434;SDS011;1228;51.022;6.764;2024-02-16T00:17:28;4.20;;;3.80;;
2434;SDS011;1228;51.022;6.764;2024-02-16T00:19:57;3.97;;;3.67;;
2434;SDS011;1228;51.022;6.764;2024-02-16T00:22:22;5.43;;;3.80;;
2434;SDS011;1228;51.022;6.764;2024-02-16T00:24:48;6.20;;;4.13;;
2434;SDS011;1228;51.022;6.764;2024-02-16T00:27:14;5.07;;;3.50;;
2434;SDS011;1228;51.022;6.764;2024-02-16T00:29:40;4.10;;;3.80;;
2434;SDS011;1228;51.022;6.764;2024-02-16T00:32:06;5.33;;;4.00;;
2434;SDS011;1228;51.022;6.764;2024-02-16T00:34:32;6.90;;;4.00;;
2434;SDS011;1228;51.022;6.764;2024-02-16T00:36:59;4.17;;;3.77;;
2434;SDS011;1228;51.022;6.764;2024-02-16T00:39:25;4.47;;;3.77;;
2434;SDS011;1228;51.022;6.764;2024-02-16T00:41:50;4.57;;;3.90;;
2434;SDS011;1228;51.022;6.764;2024-02-16T00:44:16;5.00;;;3.80;;
2434;SDS011;1228;51.022;6.764;2024-02-16T00:46:42;4.13;;;3.67;;
2434;SDS011;1228;51.022;6.764;2024-02-16T00:49:08;4.97;;;3.70;;
2434;SDS011;1228;51.022;6.764;2024-02-16T00:51:35;4.10;;;3.70;;
2434;SDS011;1228;51.022;6.764;2024-02-16T00:54:02;3.47;;;3.23;;
2434;SDS011;1228;51.022;6.764;2024-02-16T00:56:28;4.83;;;3.60;;
2434;SDS011;1228;51.022;6.764;2024-02-16T00:58:54;4.93;;;3.93;;
2434;SDS011;1228;51.022;6.764;2024-02-16T01:01:20;5.13;;;4.03;;
2434;SDS011;1228;51.022;6.764;2024-02-16T01:03:47;4.23;;;3.43;;
2434;SDS011;1228;51.022;6.764;2024-02-16T01:06:13;3.97;;;3.67;;
2434;SDS011;1228;51.022;6.764;2024-02-16T01:08:39;5.17;;;3.67;;
2434;SDS011;1228;51.022;6.764;2024-02-16T01:11:05;4.10;;;3.40;;
2434;SDS011;1228;51.022;6.764;2024-02-16T01:13:30;6.07;;;3.80;;
2434;SDS011;1228;51.022;6.764;2024-02-16T01:15:57;4.87;;;3.70;;
2434;SDS011;1228;51.022;6.764;2024-02-16T01:18:23;4.60;;;3.50;;
2434;SDS011;1228;51.022;6.764;2024-02-16T01:20:49;3.70;;;3.40;;
2434;SDS011;1228;51.022;6.764;2024-02-16T01:23:14;4.07;;;3.67;;
2434;SDS011;1228;51.022;6.764;2024-02-16T01:25:40;4.10;;;3.70;;
2434;SDS011;1228;51.022;6.764;2024-02-16T01:28:06;5.50;;;3.73;;
2434;SDS011;1228;51.022;6.764;2024-02-16T01:30:31;6.50;;;3.77;;
2434;SDS011;1228;51.022;6.764;2024-02-16T01:32:57;3.90;;;3.50;;
2434;SDS011;1228;51.022;6.764;2024-02-16T01:35:22;5.53;;;3.60;;
2434;SDS011;1228;51.022;6.764;2024-02-16T01:37:48;6.37;;;3.53;;
2434;SDS011;1228;51.022;6.764;2024-02-16T01:40:13;4.30;;;3.80;;
2434;SDS011;1228;51.022;6.764;2024-02-16T01:42:42;3.93;;;3.60;;
2434;SDS011;1228;51.022;6.764;2024-02-16T01:45:08;6.83;;;3.50;;
2434;SDS011;1228;51.022;6.764;2024-02-16T01:47:35;6.07;;;3.67;;
2434;SDS011;1228;51.022;6.764;2024-02-16T01:50:02;4.63;;;3.60;;
2434;SDS011;1228;51.022;6.764;2024-02-16T01:52:28;6.73;;;4.40;;
2434;SDS011;1228;51.022;6.764;2024-02-16T01:54:56;3.90;;;3.60;;
2434;SDS011;1228;51.022;6.764;2024-02-16T01:57:23;4.97;;;3.90;;
2434;SDS011;1228;51.022;6.764;2024-02-16T01:59:49;7.13;;;3.63;;
2434;SDS011;1228;51.022;6.764;2024-02-16T02:02:15;5.53;;;3.70;;
2434;SDS011;1228;51.022;6.764;2024-02-16T02:04:40;3.60;;;3.30;;
2434;SDS011;1228;51.022;6.764;2024-02-16T02:07:13;4.67;;;3.77;;
2434;SDS011;1228;51.022;6.764;2024-02-16T02:09:40;5.93;;;3.70;;
2434;SDS011;1228;51.022;6.764;2024-02-16T02:12:05;4.00;;;3.40;;
2434;SDS011;1228;51.022;6.764;2024-02-16T02:14:31;4.37;;;3.73;;
2434;SDS011;1228;51.022;6.764;2024-02-16T02:16:57;4.23;;;3.70;;
2434;SDS011;1228;51.022;6.764;2024-02-16T02:19:22;4.40;;;4.00;;
2434;SDS011;1228;51.022;6.764;2024-02-16T02:21:48;7.87;;;4.43;;
2434;SDS011;1228;51.022;6.764;2024-02-16T02:24:15;4.77;;;4.40;;
2434;SDS011;1228;51.022;6.764;2024-02-16T02:26:41;4.63;;;4.23;;
2434;SDS011;1228;51.022;6.764;2024-02-16T02:29:07;4.37;;;3.97;;
2434;SDS011;1228;51.022;6.764;2024-02-16T02:31:32;4.97;;;4.57;;
2434;SDS011;1228;51.022;6.764;2024-02-16T02:33:58;4.77;;;3.90;;
2434;SDS011;1228;51.022;6.764;2024-02-16T02:36:23;4.70;;;4.30;;
2434;SDS011;1228;51.022;6.764;2024-02-16T02:38:50;6.37;;;4.83;;
2434;SDS011;1228;51.022;6.764;2024-02-16T02:41:16;4.87;;;4.50;;
2434;SDS011;1228;51.022;6.764;2024-02-16T02:43:44;5.97;;;4.60;;
2434;SDS011;1228;51.022;6.764;2024-02-16T02:46:14;5.97;;;4.53;;
2434;SDS011;1228;51.022;6.764;2024-02-16T02:48:46;4.00;;;3.60;;
2434;SDS011;1228;51.022;6.764;2024-02-16T02:51:11;4.10;;;3.73;;
2434;SDS011;1228;51.022;6.764;2024-02-16T02:53:37;3.87;;;3.40;;
2434;SDS011;1228;51.022;6.764;2024-02-16T02:56:03;4.47;;;3.97;;
2434;SDS011;1228;51.022;6.764;2024-02-16T02:58:29;5.47;;;3.90;;
2434;SDS011;1228;51.022;6.764;2024-02-16T03:00:55;9.40;;;3.67;;
2434;SDS011;1228;51.022;6.764;2024-02-16T03:03:21;3.90;;;3.40;;
2434;SDS011;1228;51.022;6.764;2024-02-16T03:05:47;4.23;;;3.83;;
2434;SDS011;1228;51.022;6.764;2024-02-16T03:08:13;4.70;;;3.60;;
2434;SDS011;1228;51.022;6.764;2024-02-16T03:10:39;3.87;;;3.57;;
2434;SDS011;1228;51.022;6.764;2024-02-16T03:13:05;4.43;;;3.63;;
2434;SDS011;1228;51.022;6.764;2024-02-16T03:15:33;7.83;;;3.67;;
2434;SDS011;1228;51.022;6.764;2024-02-16T03:18:00;4.40;;;4.00;;
2434;SDS011;1228;51.022;6.764;2024-02-16T03:20:26;4.40;;;4.10;;
2434;SDS011;1228;51.022;6.764;2024-02-16T03:22:52;5.33;;;4.57;;
2434;SDS011;1228;51.022;6.764;2024-02-16T03:25:18;4.40;;;4.00;;
2434;SDS011;1228;51.022;6.764;2024-02-16T03:27:45;6.90;;;3.87;;
2434;SDS011;1228;51.022;6.764;2024-02-16T03:30:10;5.10;;;4.20;;
2434;SDS011;1228;51.022;6.764;2024-02-16T03:32:36;7.40;;;4.47;;
2434;SDS011;1228;51.022;6.764;2024-02-16T03:35:02;6.33;;;4.10;;
2434;SDS011;1228;51.022;6.764;2024-02-16T03:37:29;4.53;;;4.20;;
2434;SDS011;1228;51.022;6.764;2024-02-16T03:39:55;6.40;;;4.47;;
2434;SDS011;1228;51.022;6.764;2024-02-16T03:42:21;6.90;;;4.33;;
2434;SDS011;1228;51.022;6.764;2024-02-16T03:44:46;4.77;;;4.37;;
2434;SDS011;1228;51.022;6.764;2024-02-16T03:47:12;5.80;;;4.13;;
2434;SDS011;1228;51.022;6.764;2024-02-16T03:49:38;6.70;;;4.13;;
2434;SDS011;1228;51.022;6.764;2024-02-16T03:52:04;4.73;;;4.20;;
2434;SDS011;1228;51.022;6.764;2024-02-16T03:54:30;5.67;;;4.20;;
2434;SDS011;1228;51.022;6.764;2024-02-16T03:56:56;6.73;;;4.23;;
2434;SDS011;1228;51.022;6.764;2024-02-16T03:59:23;10.73;;;4.83;;
2434;SDS011;1228;51.022;6.764;2024-02-16T04:01:48;4.93;;;4.40;;
2434;SDS011;1228;51.022;6.764;2024-02-16T04:04:14;4.63;;;4.23;;
2434;SDS011;1228;51.022;6.764;2024-02-16T04:06:41;4.63;;;4.30;;
2434;SDS011;1228;51.022;6.764;2024-02-16T04:09:06;11.00;;;5.00;;
2434;SDS011;1228;51.022;6.764;2024-02-16T04:11:33;5.40;;;4.57;;
2434;SDS011;1228;51.022;6.764;2024-02-16T04:13:59;5.03;;;4.07;;
2434;SDS011;1228;51.022;6.764;2024-02-16T04:16:25;4.50;;;4.10;;
2434;SDS011;1228;51.022;6.764;2024-02-16T04:18:51;5.57;;;4.00;;
2434;SDS011;1228;51.022;6.764;2024-02-16T04:21:16;6.53;;;4.50;;
2434;SDS011;1228;51.022;6.764;2024-02-16T04:23:43;5.03;;;3.97;;
2434;SDS011;1228;51.022;6.764;2024-02-16T04:26:09;5.47;;;4.30;;
2434;SDS011;1228;51.022;6.764;2024-02-16T04:28:35;6.40;;;4.27;;
2434;SDS011;1228;51.022;6.764;2024-02-16T04:31:01;4.20;;;3.90;;
2434;SDS011;1228;51.022;6.764;2024-02-16T04:33:27;5.10;;;4.30;;
2434;SDS011;1228;51.022;6.764;2024-02-16T04:35:52;4.70;;;4.30;;
2434;SDS011;1228;51.022;6.764;2024-02-16T04:38:18;6.80;;;4.27;;
2434;SDS011;1228;51.022;6.764;2024-02-16T04:40:44;6.37;;;4.70;;
2434;SDS011;1228;51.022;6.764;2024-02-16T04:43:10;6.40;;;5.00;;
2434;SDS011;1228;51.022;6.764;2024-02-16T04:45:36;6.17;;;4.50;;
2434;SDS011;1228;51.022;6.764;2024-02-16T04:48:05;5.97;;;4.53;;
2434;SDS011;1228;51.022;6.764;2024-02-16T04:50:34;5.77;;;4.57;;
2434;SDS011;1228;51.022;6.764;2024-02-16T04:53:00;8.17;;;4.80;;
2434;SDS011;1228;51.022;6.764;2024-02-16T04:55:29;6.13;;;4.10;;
2434;SDS011;1228;51.022;6.764;2024-02-16T04:57:56;6.00;;;4.50;;
2434;SDS011;1228;51.022;6.764;2024-02-16T05:00:21;4.60;;;4.20;;
2434;SDS011;1228;51.022;6.764;2024-02-16T05:02:47;5.83;;;4.60;;
2434;SDS011;1228;51.022;6.764;2024-02-16T05:05:13;6.20;;;4.73;;
2434;SDS011;1228;51.022;6.764;2024-02-16T05:07:40;9.00;;;5.13;;
2434;SDS011;1228;51.022;6.764;2024-02-16T05:10:10;6.03;;;4.40;;
2434;SDS011;1228;51.022;6.764;2024-02-16T05:12:36;5.23;;;4.77;;
2434;SDS011;1228;51.022;6.764;2024-02-16T05:15:02;6.00;;;4.93;;
2434;SDS011;1228;51.022;6.764;2024-02-16T05:17:28;4.90;;;4.50;;
2434;SDS011;1228;51.022;6.764;2024-02-16T05:19:54;5.13;;;4.63;;
2434;SDS011;1228;51.022;6.764;2024-02-16T05:22:20;6.90;;;4.60;;
2434;SDS011;1228;51.022;6.764;2024-02-16T05:24:46;4.93;;;4.53;;
2434;SDS011;1228;51.022;6.764;2024-02-16T05:27:12;5.20;;;4.60;;
2434;SDS011;1228;51.022;6.764;2024-02-16T05:29:38;6.73;;;4.87;;
2434;SDS011;1228;51.022;6.764;2024-02-16T05:32:05;7.30;;;4.83;;
2434;SDS011;1228;51.022;6.764;2024-02-16T05:34:31;6.57;;;5.03;;
2434;SDS011;1228;51.022;6.764;2024-02-16T05:37:03;6.00;;;4.70;;
2434;SDS011;1228;51.022;6.764;2024-02-16T05:39:29;8.67;;;5.23;;
2434;SDS011;1228;51.022;6.764;2024-02-16T05:41:57;5.43;;;4.80;;
2434;SDS011;1228;51.022;6.764;2024-02-16T05:44:23;5.20;;;4.67;;
2434;SDS011;1228;51.022;6.764;2024-02-16T05:46:49;6.10;;;5.03;;
2434;SDS011;1228;51.022;6.764;2024-02-16T05:49:15;9.83;;;5.57;;
2434;SDS011;1228;51.022;6.764;2024-02-16T05:51:41;5.80;;;5.30;;
2434;SDS011;1228;51.022;6.764;2024-02-16T05:54:07;6.10;;;5.50;;
2434;SDS011;1228;51.022;6.764;2024-02-16T05:56:36;5.33;;;4.83;;
2434;SDS011;1228;51.022;6.764;2024-02-16T05:59:04;5.13;;;4.63;;
2434;SDS011;1228;51.022;6.764;2024-02-16T06:01:30;6.50;;;5.03;;
2434;SDS011;1228;51.022;6.764;2024-02-16T06:03:56;5.77;;;4.90;;
2434;SDS011;1228;51.022;6.764;2024-02-16T06:06:21;5.73;;;5.30;;
2434;SDS011;1228;51.022;6.764;2024-02-16T06:08:47;8.30;;;4.87;;
2434;SDS011;1228;51.022;6.764;2024-02-16T06:11:13;7.10;;;4.93;;
2434;SDS011;1228;51.022;6.764;2024-02-16T06:13:38;5.83;;;5.13;;
2434;SDS011;1228;51.022;6.764;2024-02-16T06:16:05;9.37;;;4.93;;
2434;SDS011;1228;51.022;6.764;2024-02-16T06:18:33;6.63;;;5.30;;
2434;SDS011;1228;51.022;6.764;2024-02-16T06:20:59;7.10;;;4.77;;
2434;SDS011;1228;51.022;6.764;2024-02-16T06:23:25;5.97;;;4.93;;
2434;SDS011;1228;51.022;6.764;2024-02-16T06:25:50;5.90;;;4.77;;
2434;SDS011;1228;51.022;6.764;2024-02-16T06:28:16;9.77;;;5.10;;
2434;SDS011;1228;51.022;6.764;2024-02-16T06:30:42;7.13;;;4.33;;
2434;SDS011;1228;51.022;6.764;2024-02-16T06:33:07;5.60;;;4.67;;
2434;SDS011;1228;51.022;6.764;2024-02-16T06:35:33;7.23;;;4.70;;
2434;SDS011;1228;51.022;6.764;2024-02-16T06:37:58;5.50;;;5.00;;
2434;SDS011;1228;51.022;6.764;2024-02-16T06:40:24;5.17;;;4.30;;
2434;SDS011;1228;51.022;6.764;2024-02-16T06:42:51;6.87;;;4.37;;
2434;SDS011;1228;51.022;6.764;2024-02-16T06:45:17;4.97;;;4.50;;
2434;SDS011;1228;51.022;6.764;2024-02-16T06:47:42;4.83;;;4.20;;
2434;SDS011;1228;51.022;6.764;2024-02-16T06:50:08;4.40;;;4.00;;
2434;SDS011;1228;51.022;6.764;2024-02-16T06:52:34;5.30;;;4.00;;
2434;SDS011;1228;51.022;6.764;2024-02-16T06:55:00;5.07;;;4.50;;
2434;SDS011;1228;51.022;6.764;2024-02-16T06:57:25;4.40;;;4.00;;
2434;SDS011;1228;51.022;6.764;2024-02-16T06:59:51;5.10;;;4.60;;
2434;SDS011;1228;51.022;6.764;2024-02-16T07:02:18;6.63;;;4.50;;
2434;SDS011;1228;51.022;6.764;2024-02-16T07:04:44;5.43;;;4.53;;
2434;SDS011;1228;51.022;6.764;2024-02-16T07:07:10;6.87;;;4.50;;
2434;SDS011;1228;51.022;6.764;2024-02-16T07:09:36;4.90;;;4.20;;
2434;SDS011;1228;51.022;6.764;2024-02-16T07:12:04;4.27;;;3.87;;
2434;SDS011;1228;51.022;6.764;2024-02-16T07:14:31;5.53;;;4.43;;
2434;SDS011;1228;51.022;6.764;2024-02-16T07:16:57;4.60;;;4.17;;
2434;SDS011;1228;51.022;6.764;2024-02-16T07:19:23;5.73;;;4.30;;
2434;SDS011;1228;51.022;6.764;2024-02-16T07:21:49;5.30;;;4.10;;
2434;SDS011;1228;51.022;6.764;2024-02-16T07:24:15;5.20;;;4.70;;
2434;SDS011;1228;51.022;6.764;2024-02-16T07:26:41;5.23;;;4.70;;
2434;SDS011;1228;51.022;6.764;2024-02-16T07:29:07;4.53;;;4.13;;
2434;SDS011;1228;51.022;6.764;2024-02-16T07:31:33;8.40;;;4.00;;
2434;SDS011;1228;51.022;6.764;2024-02-16T07:34:00;4.40;;;3.93;;
2434;SDS011;1228;51.022;6.764;2024-02-16T07:36:28;5.73;;;4.30;;
2434;SDS011;1228;51.022;6.764;2024-02-16T07:38:54;5.80;;;4.23;;
2434;SDS011;1228;51.022;6.764;2024-02-16T07:41:20;6.47;;;4.20;;
2434;SDS011;1228;51.022;6.764;2024-02-16T07:43:45;6.13;;;4.80;;
2434;SDS011;1228;51.022;6.764;2024-02-16T07:46:11;6.73;;;4.50;;
2434;SDS011;1228;51.022;6.764;2024-02-16T07:48:37;5.00;;;4.50;;
2434;SDS011;1228;51.022;6.764;2024-02-16T07:51:03;5.97;;;4.57;;
2434;SDS011;1228;51.022;6.764;2024-02-16T07:53:29;5.30;;;4.20;;
2434;SDS011;1228;51.022;6.764;2024-02-16T07:55:55;6.43;;;4.70;;
2434;SDS011;1228;51.022;6.764;2024-02-16T07:58:22;5.97;;;4.27;;
2434;SDS011;1228;51.022;6.764;2024-02-16T08:00:47;5.13;;;4.37;;
2434;SDS011;1228;51.022;6.764;2024-02-16T08:03:13;5.37;;;4.37;;
2434;SDS011;1228;51.022;6.764;2024-02-16T08:05:38;8.70;;;5.00;;
2434;SDS011;1228;51.022;6.764;2024-02-16T08:08:04;4.60;;;4.10;;
2434;SDS011;1228;51.022;6.764;2024-02-16T08:10:30;7.17;;;4.30;;
2434;SDS011;1228;51.022;6.764;2024-02-16T08:12:58;5.90;;;4.60;;
2434;SDS011;1228;51.022;6.764;2024-02-16T08:15:23;4.40;;;4.00;;
2434;SDS011;1228;51.022;6.764;2024-02-16T08:17:50;4.50;;;4.07;;
2434;SDS011;1228;51.022;6.764;2024-02-16T08:20:16;4.53;;;4.13;;
2434;SDS011;1228;51.022;6.764;2024-02-16T08:22:42;7.73;;;4.67;;
2434;SDS011;1228;51.022;6.764;2024-02-16T08:25:08;6.33;;;4.30;;
2434;SDS011;1228;51.022;6.764;2024-02-16T08:27:33;5.47;;;4.40;;
2434;SDS011;1228;51.022;6.764;2024-02-16T08:29:59;7.80;;;4.57;;
2434;SDS011;1228;51.022;6.764;2024-02-16T08:32:27;5.20;;;4.70;;
2434;SDS011;1228;51.022;6.764;2024-02-16T08:34:53;6.50;;;4.40;;
2434;SDS011;1228;51.022;6.764;2024-02-16T08:37:21;5.53;;;4.50;;
2434;SDS011;1228;51.022;6.764;2024-02-16T08:39:47;8.07;;;4.60;;
2434;SDS011;1228;51.022;6.764;2024-02-16T08:42:12;6.80;;;4.40;;
2434;SDS011;1228;51.022;6.764;2024-02-16T08:44:38;6.03;;;4.77;;
2434;SDS011;1228;51.022;6.764;2024-02-16T08:47:05;4.47;;;4.03;;
2434;SDS011;1228;51.022;6.764;2024-02-16T08:49:32;4.63;;;4.20;;
2434;SDS011;1228;51.022;6.764;2024-02-16T08:51:58;7.67;;;4.20;;
2434;SDS011;1228;51.022;6.764;2024-02-16T08:54:24;5.60;;;4.20;;
2434;SDS011;1228;51.022;6.764;2024-02-16T08:56:50;5.73;;;4.83;;
2434;SDS011;1228;51.022;6.764;2024-02-16T08:59:17;4.80;;;4.23;;
2434;SDS011;1228;51.022;6.764;2024-02-16T09:01:42;4.80;;;4.30;;
2434;SDS011;1228;51.022;6.764;2024-02-16T09:04:08;5.93;;;4.87;;
2434;SDS011;1228;51.022;6.764;2024-02-16T09:06:34;5.27;;;4.47;;
2434;SDS011;1228;51.022;6.764;2024-02-16T09:09:00;5.13;;;4.40;;
2434;SDS011;1228;51.022;6.764;2024-02-16T09:11:26;6.07;;;4.53;;
2434;SDS011;1228;51.022;6.764;2024-02-16T09:13:52;5.13;;;4.40;;
2434;SDS011;1228;51.022;6.764;2024-02-16T09:16:18;7.37;;;4.53;;
2434;SDS011;1228;51.022;6.764;2024-02-16T09:18:44;6.57;;;4.60;;
2434;SDS011;1228;51.022;6.764;2024-02-16T09:21:10;6.40;;;4.90;;
2434;SDS011;1228;51.022;6.764;2024-02-16T09:23:36;7.87;;;4.47;;
2434;SDS011;1228;51.022;6.764;2024-02-16T09:26:02;6.37;;;4.43;;
2434;SDS011;1228;51.022;6.764;2024-02-16T09:28:28;4.43;;;4.00;;
2434;SDS011;1228;51.022;6.764;2024-02-16T09:30:58;5.30;;;4.80;;
2434;SDS011;1228;51.022;6.764;2024-02-16T09:33:23;4.73;;;4.23;;
2434;SDS011;1228;51.022;6.764;2024-02-16T09:35:49;5.80;;;4.57;;
2434;SDS011;1228;51.022;6.764;2024-02-16T09:38:16;5.47;;;4.77;;
2434;SDS011;1228;51.022;6.764;2024-02-16T09:40:41;6.73;;;4.70;;
2434;SDS011;1228;51.022;6.764;2024-02-16T09:43:07;11.10;;;4.80;;
2434;SDS011;1228;51.022;6.764;2024-02-16T09:45:33;5.70;;;4.30;;
2434;SDS011;1228;51.022;6.764;2024-02-16T09:47:59;7.23;;;4.60;;
2434;SDS011;1228;51.022;6.764;2024-02-16T09:50:26;6.20;;;4.17;;
2434;SDS011;1228;51.022;6.764;2024-02-16T09:52:52;6.97;;;4.67;;
2434;SDS011;1228;51.022;6.764;2024-02-16T09:55:19;5.20;;;4.37;;
2434;SDS011;1228;51.022;6.764;2024-02-16T09:57:45;7.47;;;4.23;;
2434;SDS011;1228;51.022;6.764;2024-02-16T10:00:12;5.87;;;4.20;;
2434;SDS011;1228;51.022;6.764;2024-02-16T10:02:42;5.10;;;4.60;;
2434;SDS011;1228;51.022;6.764;2024-02-16T10:07:40;6.90;;;4.70;;
2434;SDS011;1228;51.022;6.764;2024-02-16T10:10:06;4.53;;;4.10;;
2434;SDS011;1228;51.022;6.764;2024-02-16T10:12:44;6.43;;;4.50;;
2434;SDS011;1228;51.022;6.764;2024-02-16T10:15:10;5.27;;;4.43;;
2434;SDS011;1228;51.022;6.764;2024-02-16T10:17:36;4.63;;;4.13;;
2434;SDS011;1228;51.022;6.764;2024-02-16T10:20:02;5.23;;;4.10;;
2434;SDS011;1228;51.022;6.764;2024-02-16T10:22:31;5.33;;;4.40;;
2434;SDS011;1228;51.022;6.764;2024-02-16T10:25:07;11.40;;;4.97;;
2434;SDS011;1228;51.022;6.764;2024-02-16T10:27:37;5.47;;;4.87;;
2434;SDS011;1228;51.022;6.764;2024-02-16T10:30:05;5.87;;;5.00;;
2434;SDS011;1228;51.022;6.764;2024-02-16T10:32:37;7.13;;;5.87;;
2434;SDS011;1228;51.022;6.764;2024-02-16T10:35:04;6.30;;;4.87;;
2434;SDS011;1228;51.022;6.764;2024-02-16T10:37:33;8.33;;;4.30;;
2434;SDS011;1228;51.022;6.764;2024-02-16T10:39:59;6.83;;;4.83;;
2434;SDS011;1228;51.022;6.764;2024-02-16T10:42:27;6.67;;;5.80;;
2434;SDS011;1228;51.022;6.764;2024-02-16T10:44:52;7.10;;;5.23;;
2434;SDS011;1228;51.022;6.764;2024-02-16T10:47:18;7.00;;;5.03;;
2434;SDS011;1228;51.022;6.764;2024-02-16T10:49:44;7.53;;;4.97;;
2434;SDS011;1228;51.022;6.764;2024-02-16T10:52:10;5.97;;;5.00;;
2434;SDS011;1228;51.022;6.764;2024-02-16T10:54:39;5.60;;;4.97;;
2434;SDS011;1228;51.022;6.764;2024-02-16T10:57:07;8.43;;;5.60;;
2434;SDS011;1228;51.022;6.764;2024-02-16T10:59:40;7.10;;;4.83;;
2434;SDS011;1228;51.022;6.764;2024-02-16T11:02:08;7.43;;;5.13;;
2434;SDS011;1228;51.022;6.764;2024-02-16T11:04:38;10.20;;;6.17;;
2434;SDS011;1228;51.022;6.764;2024-02-16T11:07:11;8.73;;;5.57;;
2434;SDS011;1228;51.022;6.764;2024-02-16T11:09:40;5.23;;;4.57;;
2434;SDS011;1228;51.022;6.764;2024-02-16T11:12:06;6.80;;;5.40;;
2434;SDS011;1228;51.022;6.764;2024-02-16T11:17:10;7.57;;;4.77;;
2434;SDS011;1228;51.022;6.764;2024-02-16T11:19:37;5.20;;;4.70;;
2434;SDS011;1228;51.022;6.764;2024-02-16T11:22:06;8.83;;;5.07;;
2434;SDS011;1228;51.022;6.764;2024-02-16T11:24:36;7.33;;;4.47;;
2434;SDS011;1228;51.022;6.764;2024-02-16T11:27:03;7.40;;;4.63;;
2434;SDS011;1228;51.022;6.764;2024-02-16T11:29:34;8.13;;;5.27;;
2434;SDS011;1228;51.022;6.764;2024-02-16T11:32:03;7.83;;;5.73;;
2434;SDS011;1228;51.022;6.764;2024-02-16T11:34:30;9.23;;;5.30;;
2434;SDS011;1228;51.022;6.764;2024-02-16T11:36:57;8.30;;;5.73;;
2434;SDS011;1228;51.022;6.764;2024-02-16T11:39:23;7.03;;;5.23;;
2434;SDS011;1228;51.022;6.764;2024-02-16T11:42:03;8.43;;;4.70;;
2434;SDS011;1228;51.022;6.764;2024-02-16T11:44:37;7.50;;;4.77;;
2434;SDS011;1228;51.022;6.764;2024-02-16T11:47:07;6.47;;;4.50;;
2434;SDS011;1228;51.022;6.764;2024-02-16T11:49:42;6.30;;;5.10;;
2434;SDS011;1228;51.022;6.764;2024-02-16T11:52:08;10.80;;;5.13;;
2434;SDS011;1228;51.022;6.764;2024-02-16T11:54:33;10.33;;;5.10;;
2434;SDS011;1228;51.022;6.764;2024-02-16T11:57:00;6.03;;;4.57;;
2434;SDS011;1228;51.022;6.764;2024-02-16T11:59:26;8.30;;;4.80;;
2434;SDS011;1228;51.022;6.764;2024-02-16T12:01:55;7.07;;;5.27;;
2434;SDS011;1228;51.022;6.764;2024-02-16T12:04:25;6.70;;;4.30;;
2434;SDS011;1228;51.022;6.764;2024-02-16T12:06:59;7.27;;;4.70;;
2434;SDS011;1228;51.022;6.764;2024-02-16T12:09:25;8.70;;;4.83;;
2434;SDS011;1228;51.022;6.764;2024-02-16T12:14:21;10.07;;;5.30;;
2434;SDS011;1228;51.022;6.764;2024-02-16T12:16:50;5.57;;;4.10;;
2434;SDS011;1228;51.022;6.764;2024-02-16T12:19:20;6.87;;;4.93;;
2434;SDS011;1228;51.022;6.764;2024-02-16T12:21:50;7.97;;;4.60;;
2434;SDS011;1228;51.022;6.764;2024-02-16T12:24:16;7.20;;;5.60;;
2434;SDS011;1228;51.022;6.764;2024-02-16T12:26:43;8.83;;;5.30;;
2434;SDS011;1228;51.022;6.764;2024-02-16T12:29:08;11.60;;;6.47;;
2434;SDS011;1228;51.022;6.764;2024-02-16T12:31:37;9.10;;;5.80;;
2434;SDS011;1228;51.022;6.764;2024-02-16T12:34:06;8.27;;;6.03;;
2434;SDS011;1228;51.022;6.764;2024-02-16T12:36:33;9.73;;;6.30;;
2434;SDS011;1228;51.022;6.764;2024-02-16T12:39:03;11.77;;;6.20;;
2434;SDS011;1228;51.022;6.764;2024-02-16T12:41:32;9.10;;;7.23;;
2434;SDS011;1228;51.022;6.764;2024-02-16T12:43:59;9.10;;;6.90;;
2434;SDS011;1228;51.022;6.764;2024-02-16T12:46:24;9.77;;;6.63;;
2434;SDS011;1228;51.022;6.764;2024-02-16T12:48:50;12.00;;;6.83;;
2434;SDS011;1228;51.022;6.764;2024-02-16T12:51:17;10.10;;;7.83;;
2434;SDS011;1228;51.022;6.764;2024-02-16T12:53:43;9.77;;;7.70;;
2434;SDS011;1228;51.022;6.764;2024-02-16T12:56:09;10.73;;;7.47;;
2434;SDS011;1228;51.022;6.764;2024-02-16T12:58:35;11.57;;;7.20;;
2434;SDS011;1228;51.022;6.764;2024-02-16T13:01:02;9.10;;;6.50;;
2434;SDS011;1228;51.022;6.764;2024-02-16T13:03:30;7.70;;;6.53;;
2434;SDS011;1228;51.022;6.764;2024-02-16T13:05:59;9.83;;;6.10;;
2434;SDS011;1228;51.022;6.764;2024-02-16T13:08:25;6.87;;;6.17;;
2434;SDS011;1228;51.022;6.764;2024-02-16T13:10:51;11.90;;;5.93;;
2434;SDS011;1228;51.022;6.764;2024-02-16T13:13:16;10.43;;;7.07;;
2434;SDS011;1228;51.022;6.764;2024-02-16T13:15:42;10.33;;;7.00;;
2434;SDS011;1228;51.022;6.764;2024-02-16T13:18:08;13.97;;;7.27;;
2434;SDS011;1228;51.022;6.764;2024-02-16T13:20:33;8.07;;;6.87;;
2434;SDS011;1228;51.022;6.764;2024-02-16T13:23:00;7.07;;;6.37;;
2434;SDS011;1228;51.022;6.764;2024-02-16T13:25:26;11.03;;;6.07;;
2434;SDS011;1228;51.022;6.764;2024-02-16T13:27:52;7.87;;;5.57;;
2434;SDS011;1228;51.022;6.764;2024-02-16T13:30:17;14.20;;;7.17;;
2434;SDS011;1228;51.022;6.764;2024-02-16T13:32:43;10.73;;;6.60;;
2434;SDS011;1228;51.022;6.764;2024-02-16T13:35:09;8.90;;;6.40;;
2434;SDS011;1228;51.022;6.764;2024-02-16T13:37:34;15.33;;;7.03;;
2434;SDS011;1228;51.022;6.764;2024-02-16T13:40:00;11.60;;;7.03;;
2434;SDS011;1228;51.022;6.764;2024-02-16T13:42:29;11.07;;;6.80;;
2434;SDS011;1228;51.022;6.764;2024-02-16T13:44:56;7.73;;;6.07;;
2434;SDS011;1228;51.022;6.764;2024-02-16T13:47:22;10.37;;;6.90;;
2434;SDS011;1228;51.022;6.764;2024-02-16T13:49:48;11.57;;;7.17;;
2434;SDS011;1228;51.022;6.764;2024-02-16T13:52:14;10.03;;;6.57;;
2434;SDS011;1228;51.022;6.764;2024-02-16T13:54:40;8.67;;;6.77;;
2434;SDS011;1228;51.022;6.764;2024-02-16T13:57:05;8.43;;;7.07;;
2434;SDS011;1228;51.022;6.764;2024-02-16T13:59:31;13.10;;;7.40;;
2434;SDS011;1228;51.022;6.764;2024-02-16T14:01:58;8.60;;;6.87;;
2434;SDS011;1228;51.022;6.764;2024-02-16T14:04:24;8.27;;;6.50;;
2434;SDS011;1228;51.022;6.764;2024-02-16T14:06:51;10.77;;;7.00;;
2434;SDS011;1228;51.022;6.764;2024-02-16T14:09:17;11.20;;;7.00;;
2434;SDS011;1228;51.022;6.764;2024-02-16T14:11:45;11.23;;;7.20;;
2434;SDS011;1228;51.022;6.764;2024-02-16T14:14:11;9.47;;;6.80;;
2434;SDS011;1228;51.022;6.764;2024-02-16T14:16:37;10.77;;;8.13;;
2434;SDS011;1228;51.022;6.764;2024-02-16T14:19:03;7.97;;;7.10;;
2434;SDS011;1228;51.022;6.764;2024-02-16T14:21:29;9.03;;;6.73;;
2434;SDS011;1228;51.022;6.764;2024-02-16T14:23:54;10.80;;;7.30;;
2434;SDS011;1228;51.022;6.764;2024-02-16T14:26:20;8.93;;;6.73;;
2434;SDS011;1228;51.022;6.764;2024-02-16T14:28:46;8.80;;;8.00;;
2434;SDS011;1228;51.022;6.764;2024-02-16T14:31:11;10.77;;;8.30;;
2434;SDS011;1228;51.022;6.764;2024-02-16T14:33:39;10.43;;;8.33;;
2434;SDS011;1228;51.022;6.764;2024-02-16T14:36:05;10.10;;;7.87;;
2434;SDS011;1228;51.022;6.764;2024-02-16T14:38:34;12.07;;;8.20;;
2434;SDS011;1228;51.022;6.764;2024-02-16T14:40:59;13.20;;;8.40;;
2434;SDS011;1228;51.022;6.764;2024-02-16T14:43:28;12.20;;;8.57;;
2434;SDS011;1228;51.022;6.764;2024-02-16T14:45:56;10.80;;;8.00;;
2434;SDS011;1228;51.022;6.764;2024-02-16T14:48:22;10.03;;;8.60;;
2434;SDS011;1228;51.022;6.764;2024-02-16T14:50:50;9.47;;;8.53;;
2434;SDS011;1228;51.022;6.764;2024-02-16T14:53:22;12.17;;;8.93;;
2434;SDS011;1228;51.022;6.764;2024-02-16T14:55:48;9.37;;;8.47;;
2434;SDS011;1228;51.022;6.764;2024-02-16T14:58:15;13.10;;;9.50;;
2434;SDS011;1228;51.022;6.764;2024-02-16T15:00:41;11.27;;;9.87;;
2434;SDS011;1228;51.022;6.764;2024-02-16T15:03:07;12.50;;;9.90;;
2434;SDS011;1228;51.022;6.764;2024-02-16T15:05:33;11.63;;;9.70;;
2434;SDS011;1228;51.022;6.764;2024-02-16T15:07:59;11.27;;;9.47;;
2434;SDS011;1228;51.022;6.764;2024-02-16T15:10:26;13.60;;;9.57;;
2434;SDS011;1228;51.022;6.764;2024-02-16T15:12:52;12.57;;;9.80;;
2434;SDS011;1228;51.022;6.764;2024-02-16T15:15:18;10.10;;;8.73;;